Flight Track Log - Related Links

Times and Time Zones

All times are in EDT time to prevent confusion due to time zone crossing. See the EJA982 flight status page for this flight to view local times or setup timezone preferences in your user account.

Time Position Orientation Groundspeed Altitude Reporting Facility
EDT Latitude Longitude Course Direction KTS MPH feet Rate Location/Type
Fri 07:19:28 PM 33.9000 -118.4833 198° South 260 299 2,900  Level Southern California TRACON
Fri 07:20:41 PM 33.8253 -118.5131 198° South 268 308 7,200 3,378 Climbing Los Angeles Center
Fri 07:21:43 PM 33.7475 -118.5158 182° South 281 323 10,500 2,903 Climbing Los Angeles Center
Fri 07:22:45 PM 33.6789 -118.4519 142° Southeast 337 388 13,200 2,565 Climbing Los Angeles Center
Fri 07:23:47 PM 33.6436 -118.3156 107° East 376 433 15,800 2,323 Climbing Los Angeles Center
Fri 07:24:49 PM 33.6436 -118.1869 90° East 396 456 18,000 1,728 Climbing Los Angeles Center
Fri 07:25:52 PM 33.6444 -118.0522 90° East 407 468 19,400 1,440 Climbing Los Angeles Center
Fri 07:26:54 PM 33.6444 -117.9117 90° East 420 483 21,000 1,403 Climbing Los Angeles Center
Fri 07:27:56 PM 33.6442 -117.7681 90° East 429 494 22,300 1,403 Climbing Los Angeles Center
Fri 07:28:58 PM 33.6433 -117.5922 90° East 441 507 23,900 1,452 Climbing Los Angeles Center
Fri 07:30:00 PM 33.6425 -117.4403 90° East 454 522 25,300 1,210 Climbing Los Angeles Center
Fri 07:31:02 PM 33.6419 -117.2850 90° East 464 534 26,400 1,113 Climbing Los Angeles Center
Fri 07:32:04 PM 33.6403 -117.1264 91° East 474 545 27,600 1,113 Climbing Los Angeles Center
Fri 07:33:06 PM 33.6381 -116.9658 91° East 483 556 28,700 1,008 Climbing Los Angeles Center
Fri 07:34:09 PM 33.6564 -116.7825 83° East 501 577 29,700 960 Climbing Los Angeles Center
Fri 07:35:11 PM 33.6936 -116.6181 75° East 507 583 30,700 968 Climbing Los Angeles Center
Fri 07:36:13 PM 33.7294 -116.4519 75° East 511 588 31,700 968 Climbing Los Angeles Center
Fri 07:37:15 PM 33.7667 -116.2833 75° East 517 595 32,700 1,065 Climbing Los Angeles Center
Fri 07:38:17 PM 33.8111 -116.0769 75° East 529 609 33,900 1,065 Climbing Los Angeles Center
Fri 07:39:19 PM 33.8464 -115.9064 76° East 525 604 34,900 968 Climbing Los Angeles Center
Fri 07:40:21 PM 33.8831 -115.7336 76° East 530 610 35,900 1,065 Climbing Los Angeles Center
Fri 07:41:23 PM 33.9189 -115.5606 76° East 534 615 37,100 1,161 Climbing Los Angeles Center
Fri 07:42:25 PM 33.9553 -115.3897 76° East 529 609 38,300 912 Climbing Los Angeles Center
Fri 07:43:28 PM 33.9908 -115.2172 76° East 529 609 39,000 336 Climbing Los Angeles Center
Fri 07:44:30 PM 34.0353 -115.0025 76° East 547 629 39,000  Level Los Angeles Center
Fri 07:45:32 PM 34.0733 -114.8206 76° East 558 642 39,000  Level Los Angeles Center
Fri 07:46:34 PM 34.1125 -114.6378 75° East 560 644 39,000  Level Los Angeles Center
Fri 07:47:36 PM 34.1642 -114.4583 71° East 563 648 39,000  Level Los Angeles Center
Fri 07:48:18 PM 34.1986 -114.3375 71° East 568 654 39,000  Level Albuquerque Center
Fri 07:49:19 PM 34.2508 -114.1542 71° East 572 658 39,000  Level Albuquerque Center
Fri 07:50:19 PM 34.3008 -113.9739 71° East 569 655 39,000  Level Albuquerque Center
Fri 07:51:22 PM 34.3503 -113.7942 72° East 567 652 39,000  Level Albuquerque Center
Fri 07:52:24 PM 34.3992 -113.6086 72° East 565 650 39,000  Level Albuquerque Center
Fri 07:53:24 PM 34.4628 -113.4167 68° East 569 655 39,000 390 Level Albuquerque Center
Fri 07:54:27 PM 34.5525 -113.2664 54° Northeast 559 643 39,800 823 Climbing Albuquerque Center
Fri 07:55:28 PM 34.6422 -113.1175 54° Northeast 552 635 40,700 595 Climbing Albuquerque Center
Fri 07:56:28 PM 34.7261 -112.9236 62° Northeast 548 631 41,000 146 Climbing Albuquerque Center
Fri 07:57:31 PM 34.7919 -112.7567 64° Northeast 554 638 41,000  Level Albuquerque Center
Fri 07:58:34 PM 34.8592 -112.5878 64° Northeast 559 643 41,000  Level Albuquerque Center
Fri 07:59:35 PM 34.9275 -112.4189 64° Northeast 561 646 41,000  Level Albuquerque Center
Fri 08:00:36 PM 34.9931 -112.2486 65° Northeast 563 648 41,000  Level Albuquerque Center
Fri 08:01:40 PM 35.0736 -112.0456 64° Northeast 562 647 41,000  Level Albuquerque Center
Fri 08:02:40 PM 35.1392 -111.8761 65° Northeast 559 643 41,000  Level Albuquerque Center
Fri 08:03:44 PM 35.2086 -111.6950 65° Northeast 558 642 41,000  Level Albuquerque Center
Fri 08:04:44 PM 35.2753 -111.5219 65° Northeast 561 646 41,000  Level Albuquerque Center
Fri 08:05:46 PM 35.3400 -111.3528 65° Northeast 561 646 41,000  Level Albuquerque Center
Fri 08:06:49 PM 35.4147 -111.1583 65° Northeast 563 648 41,000  Level Albuquerque Center
Fri 08:07:50 PM 35.4781 -110.9922 65° Northeast 563 648 41,000  Level Albuquerque Center
Fri 08:08:52 PM 35.5497 -110.7978 66° East 560 644 41,000  Level Albuquerque Center
Fri 08:09:53 PM 35.6128 -110.6322 65° Northeast 560 644 41,000  Level Albuquerque Center
Fri 08:10:54 PM 35.6847 -110.4397 65° Northeast 557 641 41,000  Level Albuquerque Center
Fri 08:11:58 PM 35.7464 -110.2733 65° Northeast 557 641 41,000  Level Albuquerque Center
Fri 08:12:59 PM 35.8081 -110.1067 65° Northeast 559 643 41,000  Level Albuquerque Center
Fri 08:14:03 PM 35.8792 -109.9114 66° East 560 644 41,000  Level Denver Center
Fri 08:15:04 PM 35.9522 -109.7144 65° Northeast 564 649 41,000  Level Denver Center
Fri 08:16:06 PM 36.0131 -109.5450 66° East 564 649 41,000  Level Denver Center
Fri 08:17:08 PM 36.0839 -109.3478 66° East 562 647 41,000  Level Denver Center
Fri 08:18:10 PM 36.1453 -109.1778 66° East 562 647 41,000  Level Denver Center
Fri 08:19:12 PM 36.2075 -109.0067 66° East 561 646 41,000  Level Denver Center
Fri 08:20:14 PM 36.2806 -108.8044 66° East 564 649 41,000  Level Denver Center
Fri 08:21:16 PM 36.3394 -108.6328 67° East 563 648 41,000  Level Denver Center
Fri 08:22:17 PM 36.3975 -108.4633 67° East 557 641 41,000  Level Denver Center
Fri 08:23:19 PM 36.4661 -108.2653 67° East 558 642 41,000  Level Denver Center
Fri 08:24:21 PM 36.5244 -108.0975 67° East 555 639 41,000  Level Denver Center
Fri 08:25:23 PM 36.5914 -107.9008 67° East 552 635 41,000  Level Denver Center
Fri 08:26:24 PM 36.6483 -107.7336 67° East 550 633 41,000  Level Denver Center
Fri 08:27:26 PM 36.7161 -107.5361 67° East 554 638 41,000  Level Denver Center
Fri 08:28:28 PM 36.7722 -107.3664 68° East 554 638 41,000  Level Denver Center
Fri 08:29:30 PM 36.8394 -107.1692 67° East 553 636 41,000  Level Denver Center
Fri 08:30:31 PM 36.8967 -107.0003 67° East 553 636 41,000  Level Denver Center
Fri 08:31:33 PM 36.9522 -106.8303 68° East 553 636 41,000  Level Denver Center
Fri 08:32:35 PM 37.0175 -106.6325 67° East 552 635 41,000  Level Denver Center
Fri 08:33:36 PM 37.0747 -106.4625 67° East 552 635 41,000  Level Denver Center
Fri 08:34:38 PM 37.1386 -106.2647 68° East 550 633 41,000  Level Denver Center
Fri 08:35:40 PM 37.1931 -106.0944 68° East 551 634 41,000  Level Denver Center
Fri 08:36:41 PM 37.2572 -105.8933 68° East 555 639 41,000  Level Denver Center
Fri 08:37:43 PM 37.3100 -105.7200 69° East 555 639 41,000  Level Denver Center
Fri 08:38:45 PM 37.3656 -105.5472 68° East 558 642 41,000  Level Denver Center
Fri 08:39:46 PM 37.4292 -105.3444 68° East 558 642 41,000  Level Denver Center
Fri 08:40:49 PM 37.4911 -105.1514 68° East 560 644 41,000  Level Denver Center
Fri 08:41:50 PM 37.5475 -104.9694 69° East 561 646 41,000  Level Denver Center
Fri 08:42:51 PM 37.6006 -104.7947 69° East 558 642 41,000  Level Denver Center
Fri 08:43:53 PM 37.6631 -104.5906 69° East 557 641 41,000  Level Denver Center
Fri 08:44:55 PM 37.7175 -104.4164 68° East 553 636 41,000  Level Denver Center
Fri 08:45:56 PM 37.7700 -104.2403 69° East 554 638 41,000  Level Denver Center
Fri 08:46:58 PM 37.8333 -104.0350 69° East 554 638 41,000  Level Denver Center
Fri 08:48:00 PM 37.8858 -103.8575 69° East 556 640 41,000  Level Denver Center
Fri 08:49:01 PM 37.9381 -103.6800 69° East 558 642 41,000  Level Denver Center
Fri 08:50:03 PM 37.9986 -103.4717 70° East 561 646 41,000  Level Denver Center
Fri 08:51:05 PM 38.0508 -103.2944 69° East 561 646 41,000  Level Denver Center
Fri 08:52:06 PM 38.1128 -103.0814 70° East 561 646 41,000  Level Denver Center
Fri 08:53:08 PM 38.1642 -102.9025 70° East 564 649 41,000  Level Denver Center
Fri 08:54:10 PM 38.2150 -102.7228 70° East 564 649 41,000  Level Denver Center
Fri 08:55:12 PM 38.2747 -102.5131 70° East 565 650 41,000  Level Denver Center
Fri 08:56:13 PM 38.3253 -102.3322 70° East 565 650 41,000  Level Denver Center
Fri 08:57:15 PM 38.3844 -102.1214 70° East 564 649 41,000  Level Denver Center
Fri 08:58:17 PM 38.4339 -101.9414 71° East 561 646 41,000  Level Denver Center
Fri 08:59:19 PM 38.4925 -101.7322 70° East 560 644 41,000  Level Denver Center
Fri 09:00:20 PM 38.5411 -101.5511 71° East 561 646 41,000  Level Denver Center
Fri 09:01:22 PM 38.5911 -101.3686 71° East 567 652 41,000  Level Denver Center
Fri 09:02:24 PM 38.6489 -101.1528 71° East 574 661 41,000  Level Denver Center
Fri 09:03:25 PM 38.6981 -100.9694 71° East 569 655 41,000  Level Denver Center
Fri 09:04:27 PM 38.7550 -100.7564 71° East 565 650 41,000  Level Denver Center
Fri 09:05:29 PM 38.8022 -100.5733 72° East 565 650 41,000  Level Denver Center
Fri 09:06:30 PM 38.8503 -100.3917 71° East 562 647 41,000  Level Denver Center
Fri 09:07:32 PM 38.9050 -100.1775 72° East 563 648 41,000  Level Denver Center
Fri 09:08:33 PM 38.9531 -99.9933 71° East 567 652 41,000  Level Denver Center
Fri 09:09:35 PM 39.0067 -99.7789 72° East 564 649 41,000  Level Denver Center
Fri 09:10:37 PM 39.0539 -99.5956 72° East 563 648 41,000  Level Denver Center
Fri 09:11:19 PM 39.0803 -99.4867 73° East 560 644 41,000  Level Kansas City Center
Fri 09:12:22 PM 39.1281 -99.2947 72° East 561 646 41,000  Level Kansas City Center
Fri 09:12:40 PM 39.1531 -99.1997 71° East 560 644 41,000  Level Denver Center
Fri 09:13:22 PM 39.1869 -99.0650 72° East 563 648 41,000  Level Kansas City Center
Fri 09:14:23 PM 39.2339 -98.8681 73° East 555 639 41,000  Level Kansas City Center
Fri 09:15:25 PM 39.2772 -98.6878 73° East 550 633 41,000  Level Kansas City Center
Fri 09:16:28 PM 39.3239 -98.5017 72° East 558 642 41,000  Level Kansas City Center
Fri 09:17:29 PM 39.3694 -98.3131 73° East 553 636 41,000  Level Kansas City Center
Fri 09:18:31 PM 39.4161 -98.1144 73° East 546 628 41,000  Level Kansas City Center
Fri 09:19:32 PM 39.4669 -97.9011 73° East 551 634 41,000  Level Kansas City Center
Fri 09:20:33 PM 39.5139 -97.7047 73° East 559 643 41,000  Level Kansas City Center
Fri 09:21:34 PM 39.5558 -97.5161 74° East 551 634 41,000  Level Kansas City Center
Fri 09:22:35 PM 39.6006 -97.3258 73° East 552 635 41,000  Level Kansas City Center
Fri 09:23:39 PM 39.6472 -97.1189 74° East 556 640 41,000  Level Kansas City Center
Fri 09:24:40 PM 39.6911 -96.9281 73° East 554 638 41,000  Level Kansas City Center
Fri 09:25:41 PM 39.7333 -96.7381 74° East 553 636 41,000  Level Kansas City Center
Fri 09:26:43 PM 39.7736 -96.5547 74° East 550 633 41,000  Level Kansas City Center
Fri 09:27:44 PM 39.8236 -96.3328 74° East 547 629 41,000  Level Kansas City Center
Fri 09:28:45 PM 39.8608 -96.1586 74° East 549 632 41,000  Level Kansas City Center
Fri 09:29:47 PM 39.9069 -95.9472 74° East 545 627 41,000  Level Kansas City Center
Fri 09:30:48 PM 39.9464 -95.7633 74° East 546 628 41,000  Level Kansas City Center
Fri 09:31:49 PM 39.9850 -95.5781 75° East 549 632 41,000 146 Level Kansas City Center
Fri 09:32:51 PM 40.0306 -95.3608 75° East 552 635 41,300 619 Climbing Kansas City Center
Fri 09:33:55 PM 40.0686 -95.1806 75° East 541 623 42,300 810 Climbing Kansas City Center
Fri 09:34:57 PM 40.1111 -94.9747 75° East 527 606 43,000 341 Climbing Kansas City Center
Fri 09:35:58 PM 40.1475 -94.7950 75° East 530 610 43,000  Level Kansas City Center
Fri 09:36:59 PM 40.1847 -94.6139 75° East 536 617 43,000  Level Kansas City Center
Fri 09:38:00 PM 40.2272 -94.4008 75° East 540 621 43,000  Level Kansas City Center
Fri 09:39:03 PM 40.2628 -94.2183 76° East 540 621 43,000  Level Kansas City Center
Fri 09:40:03 PM 40.2975 -94.0300 76° East 543 625 43,000  Level Kansas City Center
Fri 09:41:04 PM 40.3356 -93.8408 75° East 542 624 43,000  Level Kansas City Center
Fri 09:42:05 PM 40.3803 -93.6111 76° East 545 627 43,000  Level Kansas City Center
Fri 09:43:06 PM 40.4178 -93.4200 75° East 545 627 43,000  Level Kansas City Center
Fri 09:44:10 PM 40.4536 -93.2292 76° East 542 624 43,000  Level Kansas City Center
Fri 09:45:10 PM 40.4936 -93.0225 76° East 542 624 43,000  Level Kansas City Center
Fri 09:46:12 PM 40.5286 -92.8347 76° East 549 632 43,000  Level Kansas City Center
Fri 09:47:15 PM 40.5633 -92.6422 77° East 557 641 43,000  Level Kansas City Center
Fri 09:48:15 PM 40.6008 -92.4431 76° East 556 640 43,000  Level Kansas City Center
Fri 09:48:57 PM 40.6292 -92.2892 76° East 544 626 43,000  Level Chicago Center
Fri 09:49:59 PM 40.6628 -92.0947 77° East 545 627 43,000  Level Chicago Center
Fri 09:51:01 PM 40.6983 -91.8989 76° East 550 633 43,000  Level Chicago Center
Fri 09:52:02 PM 40.7317 -91.7000 77° East 555 639 43,000  Level Chicago Center
Fri 09:53:04 PM 40.7669 -91.5011 77° East 559 643 43,000  Level Chicago Center
Fri 09:54:05 PM 40.8072 -91.2636 77° East 556 640 43,000  Level Chicago Center
Fri 09:55:07 PM 40.8411 -91.0653 77° East 555 639 43,000  Level Chicago Center
Fri 09:56:08 PM 40.8742 -90.8667 78° East 553 636 43,000  Level Chicago Center
Fri 09:57:10 PM 40.9067 -90.6669 78° East 556 640 43,000  Level Chicago Center
Fri 09:58:11 PM 40.9394 -90.4683 78° East 551 634 43,000  Level Chicago Center
Fri 09:59:13 PM 40.9722 -90.2672 78° East 554 638 43,000  Level Chicago Center
Fri 10:00:14 PM 41.0053 -90.0664 78° East 554 638 43,000  Level Chicago Center
Fri 10:01:16 PM 41.0367 -89.8639 78° East 554 638 43,000  Level Chicago Center
Fri 10:02:17 PM 41.0678 -89.6631 78° East 551 634 43,000  Level Chicago Center
Fri 10:03:19 PM 41.0978 -89.4650 79° East 545 627 43,000  Level Chicago Center
Fri 10:04:20 PM 41.1275 -89.2669 79° East 546 628 43,000  Level Chicago Center
Fri 10:05:21 PM 41.1575 -89.0631 79° East 537 618 43,000  Level Chicago Center
Fri 10:06:23 PM 41.1856 -88.8689 79° East 540 621 43,000  Level Chicago Center
Fri 10:07:24 PM 41.2203 -88.6347 79° East 542 624 43,000  Level Chicago Center
Fri 10:08:25 PM 41.2494 -88.4381 79° East 551 634 43,000  Level Chicago Center
Fri 10:09:27 PM 41.2750 -88.2489 80° East 532 612 43,000  Level Chicago Center
Fri 10:10:28 PM 41.3017 -88.0572 79° East 543 625 43,000  Level Chicago Center
Fri 10:11:29 PM 41.3272 -87.8642 80° East 549 632 43,000  Level Chicago Center
Fri 10:12:30 PM 41.3614 -87.6342 79° East 539 620 43,000  Level Chicago Center
Fri 10:13:32 PM 41.3878 -87.4408 80° East 538 619 43,000  Level Chicago Center
Fri 10:14:33 PM 41.4139 -87.2467 80° East 538 619 43,000  Level Chicago Center
Fri 10:15:34 PM 41.4397 -87.0500 80° East 543 625 43,000  Level Chicago Center
Fri 10:16:35 PM 41.4644 -86.8514 81° East 547 629 43,000  Level Chicago Center
Fri 10:17:37 PM 41.4886 -86.6653 80° East 548 631 43,000  Level Chicago Center
Fri 10:18:38 PM 41.5181 -86.4253 81° East 548 631 43,000  Level Chicago Center
Fri 10:19:39 PM 41.5439 -86.2261 80° East 546 628 43,000  Level Chicago Center
Fri 10:20:40 PM 41.5667 -86.0256 81° East 549 632 43,000  Level Chicago Center
Fri 10:21:42 PM 41.5917 -85.8242 81° East 552 635 43,000  Level Chicago Center
Fri 10:22:43 PM 41.6150 -85.6247 81° East 546 628 43,000  Level Chicago Center
Fri 10:23:44 PM 41.6369 -85.4347 81° East 548 631 43,000  Level Chicago Center
Fri 10:24:45 PM 41.6650 -85.1967 81° East 571 657 43,000  Level Chicago Center
Fri 10:25:47 PM 41.6875 -84.9964 81° East 552 635 43,000  Level Chicago Center
Fri 10:26:48 PM 41.7100 -84.7953 81° East 547 629 43,000  Level Chicago Center
Fri 10:27:43 PM 41.7311 -84.5958 82° East 544 626 43,000  Level Cleveland Center
Fri 10:28:43 PM 41.7550 -84.3914 81° East 544 626 43,000  Level Cleveland Center
Fri 10:29:43 PM 41.7689 -84.2139 84° East 544 626 43,000  Level Cleveland Center
Fri 10:30:43 PM 41.7897 -84.0117 82° East 544 626 43,000  Level Cleveland Center
Fri 10:31:43 PM 41.8103 -83.8094 82° East 544 626 43,000  Level Cleveland Center
Fri 10:32:43 PM 41.8264 -83.6039 84° East 539 620 43,000  Level Cleveland Center
Fri 10:33:43 PM 41.8336 -83.4008 87° East 539 620 43,000  Level Cleveland Center
Fri 10:34:43 PM 41.8383 -83.1975 88° East 539 620 43,000  Level Cleveland Center
Fri 10:35:43 PM 41.8450 -82.9942 87° East 539 620 43,000  Level Cleveland Center
Fri 10:36:43 PM 41.8511 -82.7881 88° East 545 627 43,000  Level Cleveland Center
Fri 10:37:43 PM 41.8547 -82.5903 89° East 545 627 43,000  Level Cleveland Center
Fri 10:38:43 PM 41.8581 -82.3897 89° East 540 621 43,000  Level Cleveland Center
Fri 10:39:43 PM 41.8633 -82.1892 88° East 529 609 43,000  Level Cleveland Center
Fri 10:40:43 PM 41.8683 -81.9661 88° East 539 620 43,000  Level Cleveland Center
Fri 10:41:43 PM 41.8725 -81.7683 88° East 539 620 43,000  Level Cleveland Center
Fri 10:42:43 PM 41.8744 -81.5675 89° East 534 615 43,000 -350 Level Cleveland Center
Fri 10:43:43 PM 41.8761 -81.3694 89° East 534 615 42,300 -950 Descending Cleveland Center
Fri 10:44:43 PM 41.8794 -81.1575 89° East 555 639 41,100 -1,150 Descending Cleveland Center
Fri 10:45:43 PM 41.8803 -80.9514 90° East 555 639 40,000 -1,050 Descending Cleveland Center
Fri 10:46:43 PM 41.8764 -80.7672 92° East 548 631 39,000 -500 Descending Cleveland Center
Fri 10:47:43 PM 41.8683 -80.5608 93° East 555 639 39,000  Level Cleveland Center
Fri 10:48:43 PM 41.8575 -80.3517 94° East 555 639 39,000  Level Cleveland Center
Fri 10:49:43 PM 41.8486 -80.1428 93° East 555 639 39,000  Level Cleveland Center
Fri 10:50:43 PM 41.8414 -79.9422 93° East 555 639 39,000  Level Cleveland Center
Fri 10:51:43 PM 41.8297 -79.7192 94° East 555 639 39,000  Level Cleveland Center
Fri 10:52:43 PM 41.8217 -79.5328 93° East 555 639 39,000  Level Cleveland Center
Fri 10:53:43 PM 41.8114 -79.3267 94° East 555 639 39,000  Level Cleveland Center
Fri 10:54:43 PM 41.8006 -79.1208 94° East 555 639 39,000 -250 Level Cleveland Center
Fri 10:55:43 PM 41.7894 -78.9150 94° East 555 639 38,500 -750 Descending Cleveland Center
Fri 10:56:43 PM 41.7781 -78.7147 94° East 555 639 37,500 -750 Descending Cleveland Center
Fri 10:57:43 PM 41.7661 -78.5119 94° East 550 633 37,000 -800 Descending Cleveland Center
Fri 10:58:43 PM 41.7542 -78.3119 95° East 550 633 35,900 -1,000 Descending Cleveland Center
Fri 10:59:43 PM 41.7436 -78.1119 94° East 545 627 35,000 -412 Descending Cleveland Center
Fri 11:00:54 PM 41.7292 -77.8836 95° East 552 635 35,000  Level New York Center
Fri 11:01:55 PM 41.7158 -77.6878 95° East 552 635 35,000  Level New York Center
Fri 11:02:53 PM 41.7022 -77.4889 95° East 541 623 35,000 -153 Level New York Center
Fri 11:03:53 PM 41.6886 -77.2847 95° East 541 623 34,700 -645 Descending New York Center
Fri 11:04:54 PM 41.6617 -77.0850 100° East 541 623 33,700 -992 Descending New York Center
Fri 11:05:54 PM 41.6075 -76.8883 110° East 554 638 32,700 -1,041 Descending New York Center
Fri 11:06:55 PM 41.5494 -76.6753 110° East 559 643 31,600 -1,160 Descending New York Center
Fri 11:07:53 PM 41.4928 -76.4736 111° Southeast 559 643 30,400 -2,269 Descending New York Center
Fri 11:08:54 PM 41.4414 -76.2836 110° East 564 649 27,100 -2,800 Descending New York Center
Fri 11:09:53 PM 41.3928 -76.1139 111° Southeast 557 641 24,800 -2,571 Descending New York Center
Fri 11:10:53 PM 41.3461 -75.9442 110° East 525 604 22,000 -2,650 Descending New York Center
Fri 11:11:53 PM 41.2992 -75.7806 111° Southeast 491 565 19,500 -2,033 Descending New York Center
Fri 11:12:54 PM 41.2439 -75.6053 113° Southeast 469 540 17,900 -2,033 Descending New York Center
Fri 11:13:54 PM 41.1939 -75.4500 113° Southeast 456 525 15,400 -2,579 Descending New York Center
Fri 11:14:55 PM 41.1508 -75.3258 115° Southeast 427 491 12,700 -2,542 Descending New York Center
Fri 11:15:52 PM 41.1117 -75.2047 113° Southeast 384 442 10,400 -2,269 Descending New York Center
Fri 11:16:54 PM 41.0742 -75.0950 114° Southeast 306 352 8,200 -1,918 Descending New York Center
Fri 11:17:54 PM 41.0439 -75.0050 114° Southeast 279 321 6,500 -1,068 Descending New York Center
Fri 11:18:52 PM 41.0117 -74.9206 117° Southeast 279 321 6,100 -650 Descending New York Center
Fri 11:19:54 PM 40.9947 -74.8067 101° East 281 323 5,200 -976 Descending New York Center
Fri 11:20:55 PM 40.9997 -74.7192 86° East 269 310 4,100 -1,050 Descending New York Center
Fri 11:21:54 PM 41.0033 -74.6119 87° East 264 304 3,100 -508 Descending New York Center
Fri 11:22:53 PM 41.0061 -74.5214 88° East 264 304 3,100  Level New York Center
Fri 11:23:54 PM 41.0117 -74.4147 86° East 269 310 3,100  Level New York Center
Fri 11:24:55 PM 41.0164 -74.3242 86° East 269 310 3,100 -353 Level New York Center
Fri 11:25:53 PM 41.0197 -74.2197 88° East 264 304 2,400 -811 Descending New York Center
Fri 11:26:09 PM 41.0167 -74.1833 96° East 263 303 2,100 -237 Descending New York TRACON
Fri 11:27:09 PM 41.0167 -74.1000 90° East 246 283 2,100  Level New York TRACON
Fri 11:28:03 PM 40.9833 -74.0667 143° Southeast 226 260 2,100 -421 Level New York TRACON
Fri 11:29:03 PM 40.9167 -74.0500 169° South 213 245 1,300 -663 Descending New York TRACON
Fri 11:30:55 PM 40.8344 -74.0622 186° South 181 208 200 -589 Descending New York Center
Fri 11:32:00 PM 40.8501 -74.0608 North  Level Estimated
Fri 11:39:00 PM 40.8501 -74.0608 65° Northeast  Level Estimated

Login

Don't have an account? Register now (free) for customized features, flight alerts, and more!